Time;durP1;ratioP1;P1;durP2;ratioP2;P2;SDS_P1;SDS_P2;PMS_P1;PMS_P2;Temp;Humidity;BMP_temperature;BMP_pressure;BME280_temperature;BME280_humidity;BME280_pressure;Samples;Min_cycle;Max_cycle;Signal;HPM_P1;HPM_P2
2022/04/25 00:02:12;;;;;;;;;15.00;15.00;;;;;;;;5023993;28;10585;-74
2022/04/25 00:04:39;;;;;;;;;12.75;10.50;;;;;;;;5003531;28;10524;-74
2022/04/25 00:07:06;;;;;;;;;13.75;13.75;;;;;;;;5024878;28;11343;-74
2022/04/25 00:09:34;;;;;;;;;14.00;11.25;;;;;;;;5025013;28;10515;-74
2022/04/25 00:12:03;;;;;;;;;12.75;12.00;;;;;;;;5011505;28;10620;-75
2022/04/25 00:14:30;;;;;;;;;21.75;18.25;;;;;;;;5024641;28;10784;-75
2022/04/25 00:16:58;;;;;;;;;13.25;13.25;;;;;;;;5023624;28;10818;-74
2022/04/25 00:19:26;;;;;;;;;18.25;13.50;;;;;;;;5023534;28;10730;-76
2022/04/25 00:21:53;;;;;;;;;14.25;13.00;;;;;;;;5011642;28;10857;-74
2022/04/25 00:24:21;;;;;;;;;13.75;12.75;;;;;;;;5023245;28;10988;-73
2022/04/25 00:26:48;;;;;;;;;17.00;16.50;;;;;;;;5007390;28;10918;-72
2022/04/25 00:29:17;;;;;;;;;14.75;13.50;;;;;;;;5002179;28;10952;-74
2022/04/25 00:31:44;;;;;;;;;18.25;16.25;;;;;;;;5023438;28;10939;-73
2022/04/25 00:34:12;;;;;;;;;13.75;12.50;;;;;;;;5021045;28;10928;-73
2022/04/25 00:36:39;;;;;;;;;18.25;18.00;;;;;;;;5019479;28;10826;-73
2022/04/25 00:39:06;;;;;;;;;12.00;11.00;;;;;;;;5024365;28;10931;-74
2022/04/25 00:41:34;;;;;;;;;12.00;9.50;;;;;;;;4995686;28;10929;-74
2022/04/25 00:44:01;;;;;;;;;12.50;12.50;;;;;;;;5018142;28;10989;-73
2022/04/25 00:46:29;;;;;;;;;16.25;12.75;;;;;;;;5022214;28;10895;-73
2022/04/25 00:48:57;;;;;;;;;13.75;13.75;;;;;;;;5020530;28;10797;-73
2022/04/25 00:51:24;;;;;;;;;14.50;12.50;;;;;;;;5023380;28;10830;-73
2022/04/25 00:53:51;;;;;;;;;17.00;14.50;;;;;;;;5017925;28;11475;-73
2022/04/25 00:56:19;;;;;;;;;16.25;12.25;;;;;;;;5020552;28;11438;-73
2022/04/25 00:58:49;;;;;;;;;14.50;12.75;;;;;;;;5021574;28;11450;-73
2022/04/25 01:01:16;;;;;;;;;19.25;19.25;;;;;;;;5022670;28;11400;-73
2022/04/25 01:03:45;;;;;;;;;19.25;19.00;;;;;;;;5017572;28;11252;-72
2022/04/25 01:06:12;;;;;;;;;23.00;15.25;;;;;;;;5030189;28;11032;-73
2022/04/25 01:08:40;;;;;;;;;20.25;16.75;;;;;;;;5022286;28;11197;-73
2022/04/25 01:11:07;;;;;;;;;16.25;14.50;;;;;;;;5023720;28;11093;-73
2022/04/25 01:13:34;;;;;;;;;15.25;13.50;;;;;;;;5001638;28;11168;-73
2022/04/25 01:16:02;;;;;;;;;15.00;12.75;;;;;;;;5002679;28;11199;-75
2022/04/25 01:18:29;;;;;;;;;19.50;15.50;;;;;;;;5004105;28;11003;-74
2022/04/25 01:20:59;;;;;;;;;19.00;17.75;;;;;;;;5002624;28;11247;-74
2022/04/25 01:28:59;;;;;;;;;24.50;18.75;;;;;;;;4999661;28;11740;-73
2022/04/25 01:31:27;;;;;;;;;17.75;17.00;;;;;;;;4989969;28;11080;-74
2022/04/25 01:33:54;;;;;;;;;17.50;14.50;;;;;;;;4997597;28;10936;-74
2022/04/25 01:36:24;;;;;;;;;23.75;20.25;;;;;;;;5001838;28;10927;-74
2022/04/25 01:38:53;;;;;;;;;18.75;18.00;;;;;;;;5002587;28;10988;-74
2022/04/25 01:41:21;;;;;;;;;21.50;21.50;;;;;;;;5004447;28;10919;-74
2022/04/25 01:43:48;;;;;;;;;20.25;19.75;;;;;;;;4994305;28;11081;-74
2022/04/25 01:46:17;;;;;;;;;23.50;21.00;;;;;;;;5002270;28;11086;-75
2022/04/25 01:48:44;;;;;;;;;18.00;17.00;;;;;;;;5001797;28;11260;-74
2022/04/25 01:51:12;;;;;;;;;20.50;19.25;;;;;;;;4999562;28;11068;-74
2022/04/25 01:53:39;;;;;;;;;22.00;18.00;;;;;;;;5001641;28;11314;-75
2022/04/25 01:56:08;;;;;;;;;28.00;24.00;;;;;;;;5001862;28;11155;-74
2022/04/25 01:58:35;;;;;;;;;23.50;21.00;;;;;;;;5004012;28;12182;-74
2022/04/25 02:01:07;;;;;;;;;20.00;19.75;;;;;;;;4993995;28;11697;-74
2022/04/25 02:03:35;;;;;;;;;20.75;17.50;;;;;;;;5001224;28;11602;-73
2022/04/25 02:06:02;;;;;;;;;26.00;23.25;;;;;;;;5000994;28;11239;-73
2022/04/25 02:08:30;;;;;;;;;24.25;22.75;;;;;;;;5000474;28;11092;-74
2022/04/25 02:13:43;;;;;;;;;20.25;20.25;;;;;;;;5011565;28;11178;-74
2022/04/25 02:16:11;;;;;;;;;25.25;24.00;;;;;;;;5004154;28;11110;-74
2022/04/25 02:18:39;;;;;;;;;23.00;21.75;;;;;;;;5002752;28;12082;-74
2022/04/25 02:21:06;;;;;;;;;22.00;19.00;;;;;;;;5019357;28;11220;-73
2022/04/25 02:23:34;;;;;;;;;24.00;24.00;;;;;;;;5014103;28;11433;-74
2022/04/25 02:26:01;;;;;;;;;32.00;25.50;;;;;;;;5020944;28;11467;-74
2022/04/25 02:28:28;;;;;;;;;28.00;26.75;;;;;;;;5021142;28;11321;-73
2022/04/25 02:30:57;;;;;;;;;29.25;26.25;;;;;;;;5021558;28;11490;-74
2022/04/25 02:33:25;;;;;;;;;28.25;26.50;;;;;;;;5021444;28;11464;-74
2022/04/25 02:35:52;;;;;;;;;25.25;23.00;;;;;;;;5017764;28;11469;-73
2022/04/25 02:38:19;;;;;;;;;23.50;21.25;;;;;;;;5019979;28;11461;-73
2022/04/25 02:40:46;;;;;;;;;27.50;27.50;;;;;;;;5021321;28;11464;-73
2022/04/25 02:43:32;;;;;;;;;27.25;26.00;;;;;;;;5015174;28;11463;-74
2022/04/25 02:46:01;;;;;;;;;33.50;27.50;;;;;;;;5020877;28;11469;-73
2022/04/25 02:48:28;;;;;;;;;23.50;23.50;;;;;;;;5020785;28;11454;-74
2022/04/25 02:50:55;;;;;;;;;25.50;25.50;;;;;;;;5013784;28;11485;-73
2022/04/25 02:53:24;;;;;;;;;29.50;27.25;;;;;;;;5021428;28;11451;-73
2022/04/25 02:55:52;;;;;;;;;23.75;23.75;;;;;;;;5015094;28;11493;-73
2022/04/25 02:58:19;;;;;;;;;30.00;30.00;;;;;;;;5015712;28;11578;-73
2022/04/25 03:00:47;;;;;;;;;18.00;18.00;;;;;;;;5017537;28;12391;-73
2022/04/25 03:03:16;;;;;;;;;24.50;23.50;;;;;;;;5020952;28;11450;-74
2022/04/25 03:05:45;;;;;;;;;27.00;25.50;;;;;;;;5019034;28;11958;-73
2022/04/25 03:08:13;;;;;;;;;28.75;25.50;;;;;;;;5021405;28;11500;-73
2022/04/25 03:10:42;;;;;;;;;25.00;22.25;;;;;;;;5020575;28;12711;-74
2022/04/25 03:13:09;;;;;;;;;29.00;29.00;;;;;;;;5019545;28;11659;-74
2022/04/25 03:15:38;;;;;;;;;28.75;26.25;;;;;;;;5021796;28;11585;-74
2022/04/25 03:18:06;;;;;;;;;27.75;26.25;;;;;;;;5016335;28;14092;-74
2022/04/25 03:20:35;;;;;;;;;23.75;23.25;;;;;;;;5025776;28;12236;-73
2022/04/25 03:23:02;;;;;;;;;23.75;23.75;;;;;;;;5023336;28;11602;-75
2022/04/25 03:25:29;;;;;;;;;30.00;26.00;;;;;;;;5025595;28;11488;-73
2022/04/25 03:27:57;;;;;;;;;24.25;20.00;;;;;;;;5024287;28;12198;-72
2022/04/25 03:30:24;;;;;;;;;27.50;24.50;;;;;;;;5022124;28;11454;-73
2022/04/25 03:32:52;;;;;;;;;25.75;23.50;;;;;;;;5019908;28;12288;-74
2022/04/25 03:35:22;;;;;;;;;27.00;26.00;;;;;;;;5024043;28;11515;-73
2022/04/25 03:37:51;;;;;;;;;23.25;22.50;;;;;;;;5025349;28;11472;-74
2022/04/25 03:40:19;;;;;;;;;21.75;21.75;;;;;;;;5027422;28;11462;-75
2022/04/25 03:42:47;;;;;;;;;27.00;26.25;;;;;;;;5013146;28;11493;-73
2022/04/25 03:45:17;;;;;;;;;19.25;19.25;;;;;;;;5021812;28;11562;-74
2022/04/25 03:47:45;;;;;;;;;29.25;29.25;;;;;;;;5014567;28;11438;-73
2022/04/25 03:50:14;;;;;;;;;29.00;28.25;;;;;;;;5024797;28;11564;-74
2022/04/25 03:52:43;;;;;;;;;29.50;28.00;;;;;;;;5019841;28;12260;-72
2022/04/25 03:57:59;;;;;;;;;34.00;27.75;;;;;;;;5014798;28;11552;-74
2022/04/25 04:00:26;;;;;;;;;24.25;23.25;;;;;;;;5023235;28;11515;-74
2022/04/25 04:02:54;;;;;;;;;19.75;19.75;;;;;;;;5023124;28;11422;-74
2022/04/25 04:05:22;;;;;;;;;37.50;32.50;;;;;;;;5003960;28;11481;-73
2022/04/25 04:07:50;;;;;;;;;32.50;28.00;;;;;;;;5023792;28;11458;-73
2022/04/25 04:10:19;;;;;;;;;32.00;32.00;;;;;;;;5022507;28;11505;-76
2022/04/25 04:12:47;;;;;;;;;31.25;25.75;;;;;;;;5022157;28;11499;-75
2022/04/25 04:15:15;;;;;;;;;35.75;33.50;;;;;;;;5016830;28;12220;-76
2022/04/25 04:17:42;;;;;;;;;34.75;33.00;;;;;;;;5023058;28;11602;-75
2022/04/25 04:20:11;;;;;;;;;30.75;27.00;;;;;;;;5020630;28;12246;-78
2022/04/25 04:22:39;;;;;;;;;27.75;24.75;;;;;;;;5022742;28;11471;-75
2022/04/25 04:25:08;;;;;;;;;32.75;29.25;;;;;;;;5018875;28;11492;-72
2022/04/25 04:27:37;;;;;;;;;29.00;28.00;;;;;;;;5020614;28;11478;-73
2022/04/25 04:30:07;;;;;;;;;36.25;29.75;;;;;;;;5024300;28;11470;-75
2022/04/25 04:32:34;;;;;;;;;29.75;29.75;;;;;;;;5020775;28;11543;-74
2022/04/25 04:35:02;;;;;;;;;43.00;33.00;;;;;;;;5021668;28;11455;-73
2022/04/25 04:37:32;;;;;;;;;33.50;32.25;;;;;;;;5021832;28;12323;-73
2022/04/25 04:42:42;;;;;;;;;29.75;29.75;;;;;;;;5021128;28;11462;-74
2022/04/25 04:45:11;;;;;;;;;37.75;33.25;;;;;;;;5024875;28;11484;-74
2022/04/25 04:47:39;;;;;;;;;33.25;30.50;;;;;;;;5021733;28;11822;-74
2022/04/25 04:50:10;;;;;;;;;37.25;36.50;;;;;;;;5016457;28;11507;-74
2022/04/25 04:52:37;;;;;;;;;31.75;29.00;;;;;;;;5020083;28;11482;-74
2022/04/25 04:55:05;;;;;;;;;32.00;30.00;;;;;;;;5019325;28;11486;-73
2022/04/25 04:57:35;;;;;;;;;35.50;33.50;;;;;;;;5017050;28;11549;-74
2022/04/25 05:00:05;;;;;;;;;39.50;37.00;;;;;;;;5014267;28;11589;-77
2022/04/25 05:02:33;;;;;;;;;33.25;31.25;;;;;;;;5013611;28;11508;-76
2022/04/25 05:05:00;;;;;;;;;34.00;34.00;;;;;;;;5011428;28;11637;-74
2022/04/25 05:07:28;;;;;;;;;40.00;37.00;;;;;;;;5013186;28;11597;-78
2022/04/25 05:09:55;;;;;;;;;42.75;34.75;;;;;;;;5016911;28;11534;-74
2022/04/25 05:12:22;;;;;;;;;39.25;35.00;;;;;;;;5021524;28;11476;-74
2022/04/25 05:14:50;;;;;;;;;44.00;37.00;;;;;;;;5012968;28;11479;-78
2022/04/25 05:17:19;;;;;;;;;38.00;34.25;;;;;;;;4994467;28;11484;-73
2022/04/25 05:19:46;;;;;;;;;46.50;37.25;;;;;;;;5019243;28;11641;-81
2022/04/25 05:22:13;;;;;;;;;36.00;36.00;;;;;;;;5020743;28;11485;-78
2022/04/25 05:24:41;;;;;;;;;40.00;35.50;;;;;;;;5020102;28;12384;-77
2022/04/25 05:27:09;;;;;;;;;36.50;35.00;;;;;;;;5021846;28;11653;-78
2022/04/25 05:29:36;;;;;;;;;43.25;36.00;;;;;;;;4997766;28;11609;-79
2022/04/25 05:32:05;;;;;;;;;44.75;40.50;;;;;;;;5018783;28;11455;-80
2022/04/25 05:34:33;;;;;;;;;43.00;40.00;;;;;;;;5018003;28;11515;-79
2022/04/25 05:37:01;;;;;;;;;32.00;29.25;;;;;;;;5023001;28;11561;-79
2022/04/25 05:39:28;;;;;;;;;40.75;33.50;;;;;;;;5004063;28;11568;-82
2022/04/25 05:41:56;;;;;;;;;47.00;39.50;;;;;;;;5003555;28;11574;-81
2022/04/25 05:44:24;;;;;;;;;40.75;38.00;;;;;;;;5022947;28;11543;-81
2022/04/25 05:46:52;;;;;;;;;46.00;41.50;;;;;;;;5021694;28;11666;-84
2022/04/25 05:52:08;;;;;;;;;38.00;37.50;;;;;;;;5023841;28;11512;-82
2022/04/25 05:54:36;;;;;;;;;38.50;36.75;;;;;;;;5021655;28;11607;-82
2022/04/25 05:57:04;;;;;;;;;44.50;39.25;;;;;;;;5020618;28;11680;-81
2022/04/25 05:59:31;;;;;;;;;48.75;40.50;;;;;;;;5016655;28;12286;-79
2022/04/25 06:01:59;;;;;;;;;46.75;38.25;;;;;;;;5008237;28;12283;-85
2022/04/25 06:04:26;;;;;;;;;38.25;36.00;;;;;;;;5014095;28;11498;-80
2022/04/25 06:06:54;;;;;;;;;47.50;40.75;;;;;;;;5021742;28;11668;-84
2022/04/25 06:09:25;;;;;;;;;50.75;42.00;;;;;;;;5020854;28;12279;-86
2022/04/25 06:11:53;;;;;;;;;40.25;37.50;;;;;;;;5026452;28;11590;-82
2022/04/25 06:14:21;;;;;;;;;39.50;37.25;;;;;;;;5022089;28;11532;-79
2022/04/25 06:16:49;;;;;;;;;44.25;40.75;;;;;;;;5020410;28;11538;-81
2022/04/25 06:19:16;;;;;;;;;38.25;37.50;;;;;;;;5018012;28;11535;-83
2022/04/25 06:21:44;;;;;;;;;49.75;40.75;;;;;;;;5020256;28;11652;-86
2022/04/25 06:24:12;;;;;;;;;46.25;37.00;;;;;;;;5004052;28;11512;-87
2022/04/25 06:26:40;;;;;;;;;43.25;37.00;;;;;;;;5005994;28;11517;-78
2022/04/25 06:29:08;;;;;;;;;43.00;38.75;;;;;;;;5012235;28;11525;-85
2022/04/25 06:31:36;;;;;;;;;51.00;44.00;;;;;;;;5016632;28;11503;-81
2022/04/25 06:34:03;;;;;;;;;40.00;37.25;;;;;;;;5020723;28;12272;-80
2022/04/25 06:36:32;;;;;;;;;47.25;41.25;;;;;;;;5022920;28;11507;-85
2022/04/25 06:38:59;;;;;;;;;47.50;41.00;;;;;;;;5003436;28;11523;-82
2022/04/25 06:41:26;;;;;;;;;51.75;42.50;;;;;;;;5006537;28;11604;-85
2022/04/25 06:43:55;;;;;;;;;44.75;37.50;;;;;;;;5019841;28;11538;-82
2022/04/25 06:46:22;;;;;;;;;51.50;42.00;;;;;;;;5020243;28;11509;-82
2022/04/25 06:51:31;;;;;;;;;37.25;36.75;;;;;;;;5001705;28;12343;-83
2022/04/25 06:54:00;;;;;;;;;48.00;42.00;;;;;;;;5022970;28;11656;-80
2022/04/25 06:56:27;;;;;;;;;53.25;42.75;;;;;;;;5019109;28;11517;-86
2022/04/25 06:58:56;;;;;;;;;51.50;42.50;;;;;;;;5024106;28;11595;-84
2022/04/25 07:01:23;;;;;;;;;50.25;42.75;;;;;;;;5012828;28;11488;-80
2022/04/25 07:03:51;;;;;;;;;55.25;44.75;;;;;;;;5017069;28;12392;-82
2022/04/25 07:06:18;;;;;;;;;54.00;43.50;;;;;;;;5011237;28;11527;-82
2022/04/25 07:08:45;;;;;;;;;56.75;44.50;;;;;;;;4985662;28;11668;-77
2022/04/25 07:11:13;;;;;;;;;57.50;46.00;;;;;;;;5015554;28;11561;-81
2022/04/25 07:13:42;;;;;;;;;50.00;41.75;;;;;;;;5014944;28;11700;-81
2022/04/25 07:16:12;;;;;;;;;51.25;44.50;;;;;;;;5020762;28;11540;-81
2022/04/25 07:18:39;;;;;;;;;59.75;47.25;;;;;;;;5032310;28;12227;-84
2022/04/25 07:28:48;;;;;;;;;45.25;39.50;;;;;;;;5019795;28;11541;-80
2022/04/25 07:29:26;;;;;;;;;52.00;43.75;;;;;;;;5021863;28;11517;-81
2022/04/25 07:31:54;;;;;;;;;42.00;39.50;;;;;;;;5020554;28;11434;-82
2022/04/25 07:34:22;;;;;;;;;54.50;43.25;;;;;;;;5026331;28;11536;-81
2022/04/25 07:36:51;;;;;;;;;57.25;48.50;;;;;;;;5023333;28;11463;-76
2022/04/25 07:39:19;;;;;;;;;55.25;46.00;;;;;;;;5002626;28;11485;-79
2022/04/25 07:41:46;;;;;;;;;52.75;46.50;;;;;;;;5020411;28;11527;-81
2022/04/25 07:44:14;;;;;;;;;59.00;50.00;;;;;;;;5018936;28;11585;-81
2022/04/25 07:46:42;;;;;;;;;58.25;48.75;;;;;;;;5023019;28;11590;-83
2022/04/25 07:49:11;;;;;;;;;55.25;46.00;;;;;;;;5008160;28;11626;-85
2022/04/25 07:51:40;;;;;;;;;57.00;46.00;;;;;;;;5024079;28;11464;-78
2022/04/25 07:54:08;;;;;;;;;51.50;43.25;;;;;;;;5024481;28;11484;-83
2022/04/25 07:56:36;;;;;;;;;50.00;43.50;;;;;;;;5013940;28;11477;-83
2022/04/25 07:59:05;;;;;;;;;54.00;45.25;;;;;;;;5027786;28;11639;-86
2022/04/25 08:01:33;;;;;;;;;50.00;39.75;;;;;;;;5017832;28;11437;-81
2022/04/25 08:04:01;;;;;;;;;49.50;41.75;;;;;;;;5013795;28;11580;-85
2022/04/25 08:06:29;;;;;;;;;48.50;40.25;;;;;;;;5013117;28;11473;-86
2022/04/25 08:08:57;;;;;;;;;56.25;43.25;;;;;;;;5012631;28;11533;-85
2022/04/25 08:11:26;;;;;;;;;42.00;38.50;;;;;;;;5026192;28;11479;-78
2022/04/25 08:19:23;;;;;;;;;52.25;42.25;;;;;;;;5009971;28;11191;-83
2022/04/25 08:21:54;;;;;;;;;47.75;41.25;;;;;;;;5013314;28;11159;-84
2022/04/25 08:24:21;;;;;;;;;46.25;38.00;;;;;;;;5003028;28;11156;-86
2022/04/25 08:26:48;;;;;;;;;42.75;38.75;;;;;;;;5021042;28;10934;-83
2022/04/25 08:29:15;;;;;;;;;47.00;38.50;;;;;;;;5006559;28;11032;-86
2022/04/25 08:31:43;;;;;;;;;46.75;41.00;;;;;;;;4996611;28;10781;-85
2022/04/25 08:34:10;;;;;;;;;48.50;41.25;;;;;;;;5023320;28;10831;-82
2022/04/25 08:36:38;;;;;;;;;39.50;35.25;;;;;;;;5025152;28;11426;-83
2022/04/25 08:39:06;;;;;;;;;44.25;37.50;;;;;;;;5023419;28;10754;-84
2022/04/25 08:41:38;;;;;;;;;43.50;38.50;;;;;;;;5024109;28;10580;-86
2022/04/25 08:44:07;;;;;;;;;41.75;37.75;;;;;;;;5022979;28;10557;-87
2022/04/25 08:46:36;;;;;;;;;42.00;37.75;;;;;;;;5035723;28;10561;-86
2022/04/25 08:49:04;;;;;;;;;42.50;37.00;;;;;;;;5008211;28;10747;-88
2022/04/25 08:51:34;;;;;;;;;39.25;34.25;;;;;;;;5003460;28;10663;-87
2022/04/25 08:54:03;;;;;;;;;33.00;32.50;;;;;;;;5020492;28;10503;-89
2022/04/25 08:56:32;;;;;;;;;38.50;36.50;;;;;;;;5023109;28;10470;-89
2022/04/25 08:59:00;;;;;;;;;37.50;33.00;;;;;;;;5023746;28;10550;-87
2022/04/25 09:01:27;;;;;;;;;39.00;36.00;;;;;;;;5019009;28;10381;-81
2022/04/25 09:03:55;;;;;;;;;39.00;35.25;;;;;;;;5003040;28;10307;-80
2022/04/25 09:06:24;;;;;;;;;31.00;30.25;;;;;;;;5025872;28;10056;-81
2022/04/25 09:08:51;;;;;;;;;34.25;32.75;;;;;;;;5000925;28;9972;-81
2022/04/25 09:14:05;;;;;;;;;37.75;33.50;;;;;;;;5021504;28;9885;-85
2022/04/25 09:16:33;;;;;;;;;29.75;26.00;;;;;;;;5021386;28;10618;-83
2022/04/25 09:19:00;;;;;;;;;23.00;23.00;;;;;;;;5022456;28;9788;-82
2022/04/25 09:21:28;;;;;;;;;28.00;24.75;;;;;;;;5024706;28;9636;-78
2022/04/25 09:23:55;;;;;;;;;27.75;26.75;;;;;;;;5021575;28;9537;-80
2022/04/25 09:26:27;;;;;;;;;32.25;31.00;;;;;;;;5004629;28;9736;-79
2022/04/25 09:28:56;;;;;;;;;25.50;25.50;;;;;;;;5022590;28;9692;-79
2022/04/25 09:31:26;;;;;;;;;23.00;23.00;;;;;;;;5019975;28;9602;-79
2022/04/25 09:33:54;;;;;;;;;27.33;23.00;;;;;;;;5005299;28;9322;-81
2022/04/25 09:36:22;;;;;;;;;23.67;22.67;;;;;;;;5018068;28;9359;-83
2022/04/25 09:38:49;;;;;;;;;31.00;29.00;;;;;;;;5016229;28;10268;-77
2022/04/25 09:41:19;;;;;;;;;24.67;22.67;;;;;;;;5022489;28;9364;-78
2022/04/25 09:43:47;;;;;;;;;24.00;24.00;;;;;;;;5018552;28;9351;-80
2022/04/25 09:46:15;;;;;;;;;23.33;21.67;;;;;;;;5021529;28;9017;-78
2022/04/25 09:49:02;;;;;;;;;24.00;24.00;;;;;;;;5011413;28;8962;-79
2022/04/25 09:51:30;;;;;;;;;72.75;57.00;;;;;;;;5014789;28;9091;-75
2022/04/25 09:54:01;;;;;;;;;85.75;82.50;;;;;;;;5021998;28;10236;-79
2022/04/25 09:56:30;;;;;;;;;50.33;42.00;;;;;;;;4998268;28;11815;-80
2022/04/25 09:59:01;;;;;;;;;16.75;16.00;;;;;;;;5021420;28;9212;-81
2022/04/25 10:01:30;;;;;;;;;33.25;32.25;;;;;;;;5023395;28;8810;-79
2022/04/25 10:03:58;;;;;;;;;21.50;21.50;;;;;;;;5013763;28;8881;-80
2022/04/25 10:06:32;;;;;;;;;47.00;39.25;;;;;;;;5007031;28;8986;-78
2022/04/25 10:09:02;;;;;;;;;31.00;29.50;;;;;;;;5020726;28;8893;-80
2022/04/25 10:11:33;;;;;;;;;115.20;106.00;;;;;;;;5010883;28;9974;-79
2022/04/25 10:14:01;;;;;;;;;23.50;23.50;;;;;;;;5019414;28;8868;-80
2022/04/25 10:16:31;;;;;;;;;20.25;20.25;;;;;;;;5020592;28;8866;-85
2022/04/25 10:18:59;;;;;;;;;18.75;15.25;;;;;;;;5003760;28;9003;-85
2022/04/25 10:21:30;;;;;;;;;13.25;13.25;;;;;;;;5008014;28;8827;-79
2022/04/25 10:23:58;;;;;;;;;16.25;16.25;;;;;;;;5025173;28;8870;-82
2022/04/25 10:26:27;;;;;;;;;14.50;13.75;;;;;;;;5027107;28;8893;-79
2022/04/25 10:28:57;;;;;;;;;17.25;14.00;;;;;;;;5019433;28;8893;-81
2022/04/25 10:31:28;;;;;;;;;11.25;11.25;;;;;;;;5017014;28;8904;-88
2022/04/25 10:33:58;;;;;;;;;12.25;11.75;;;;;;;;5017164;28;8993;-85
2022/04/25 10:36:48;;;;;;;;;13.75;12.75;;;;;;;;5024041;28;8879;-87
2022/04/25 10:39:17;;;;;;;;;13.25;13.25;;;;;;;;5018761;28;8900;-87
2022/04/25 10:44:53;;;;;;;;;11.50;11.50;;;;;;;;5021813;28;8850;-85
2022/04/25 10:47:22;;;;;;;;;8.00;8.00;;;;;;;;5018540;28;8896;-79
2022/04/25 10:50:02;;;;;;;;;9.50;9.50;;;;;;;;5019262;28;8969;-81
2022/04/25 10:52:56;;;;;;;;;11.50;11.50;;;;;;;;5020241;28;8881;-79
2022/04/25 10:55:46;;;;;;;;;8.50;8.25;;;;;;;;5022176;28;8854;-80
2022/04/25 10:58:18;;;;;;;;;12.00;9.25;;;;;;;;5021760;28;8916;-79
2022/04/25 11:00:53;;;;;;;;;9.00;9.00;;;;;;;;5002195;28;8837;-80
2022/04/25 11:03:26;;;;;;;;;9.75;9.75;;;;;;;;5023635;28;8882;-81
2022/04/25 11:05:55;;;;;;;;;8.25;8.25;;;;;;;;5017476;28;8985;-79
2022/04/25 11:08:29;;;;;;;;;9.50;9.50;;;;;;;;5020538;28;8858;-79
2022/04/25 11:11:20;;;;;;;;;9.00;9.00;;;;;;;;5021663;28;8878;-82
2022/04/25 11:14:24;;;;;;;;;9.00;8.00;;;;;;;;5002911;28;8839;-76
2022/04/25 11:17:12;;;;;;;;;10.00;9.75;;;;;;;;5007214;28;9622;-83
2022/04/25 11:19:48;;;;;;;;;11.25;11.25;;;;;;;;5023458;28;8862;-86
2022/04/25 11:22:51;;;;;;;;;13.00;11.00;;;;;;;;5020407;28;8862;-83
2022/04/25 11:25:47;;;;;;;;;11.25;11.25;;;;;;;;5018963;28;8943;-85
2022/04/25 11:28:17;;;;;;;;;10.25;10.25;;;;;;;;5022813;28;8862;-82
2022/04/25 11:30:45;;;;;;;;;10.50;10.00;;;;;;;;5004078;28;8806;-82
2022/04/25 11:33:13;;;;;;;;;9.25;9.25;;;;;;;;5020678;28;8963;-83
2022/04/25 11:35:43;;;;;;;;;11.50;11.50;;;;;;;;5026433;28;8850;-85
2022/04/25 11:38:10;;;;;;;;;11.00;11.00;;;;;;;;5025675;28;8886;-79
2022/04/25 11:40:40;;;;;;;;;11.75;10.25;;;;;;;;5022057;28;8910;-84
2022/04/25 11:43:07;;;;;;;;;10.50;10.50;;;;;;;;5024334;28;8850;-82
2022/04/25 11:45:35;;;;;;;;;9.25;9.00;;;;;;;;5026387;28;8866;-81
2022/04/25 11:48:02;;;;;;;;;13.75;13.75;;;;;;;;5015366;28;9033;-83
2022/04/25 11:50:29;;;;;;;;;12.00;12.00;;;;;;;;5006367;28;8852;-84
2022/04/25 11:52:57;;;;;;;;;13.75;13.50;;;;;;;;5022701;28;9612;-82
2022/04/25 11:55:35;;;;;;;;;13.00;11.75;;;;;;;;5015672;28;8868;-83
2022/04/25 11:58:04;;;;;;;;;10.25;10.25;;;;;;;;5024805;28;8897;-82
2022/04/25 12:00:34;;;;;;;;;10.75;10.00;;;;;;;;5024479;28;9628;-81
2022/04/25 12:03:01;;;;;;;;;12.00;10.00;;;;;;;;5036412;28;8879;-81
2022/04/25 12:05:29;;;;;;;;;8.00;8.00;;;;;;;;5023304;28;8965;-84
2022/04/25 12:16:14;;;;;;;;;8.75;8.75;;;;;;;;5021081;28;8822;-85
2022/04/25 12:18:50;;;;;;;;;11.60;10.00;;;;;;;;5020560;28;8865;-83
2022/04/25 12:21:18;;;;;;;;;12.40;12.20;;;;;;;;5025234;28;8866;-83
2022/04/25 12:23:49;;;;;;;;;14.50;13.25;;;;;;;;5008747;28;8976;-83
2022/04/25 12:26:20;;;;;;;;;8.80;8.80;;;;;;;;5016664;28;8862;-83
2022/04/25 12:28:55;;;;;;;;;9.00;9.00;;;;;;;;5026413;28;8874;-84
2022/04/25 12:31:22;;;;;;;;;10.00;10.00;;;;;;;;5006401;28;8899;-83
2022/04/25 12:33:52;;;;;;;;;9.00;7.00;;;;;;;;5025208;28;8869;-84
2022/04/25 12:36:20;;;;;;;;;7.40;6.40;;;;;;;;5026484;28;8846;-85
2022/04/25 12:38:58;;;;;;;;;7.80;7.80;;;;;;;;5025299;28;8874;-86
2022/04/25 12:41:27;;;;;;;;;8.20;8.00;;;;;;;;5007596;28;8975;-85
2022/04/25 12:43:56;;;;;;;;;9.00;9.00;;;;;;;;5025170;28;8888;-85
2022/04/25 12:46:38;;;;;;;;;9.60;8.20;;;;;;;;5029737;28;8880;-85
2022/04/25 12:49:07;;;;;;;;;7.00;7.00;;;;;;;;5026086;28;8870;-84
2022/04/25 12:51:38;;;;;;;;;6.60;6.60;;;;;;;;5024803;28;8890;-83
2022/04/25 12:54:07;;;;;;;;;6.40;6.40;;;;;;;;5024845;28;9485;-82
2022/04/25 12:56:36;;;;;;;;;7.00;7.00;;;;;;;;5006859;28;8900;-83
2022/04/25 12:59:04;;;;;;;;;5.80;5.80;;;;;;;;5019814;28;8868;-83
2022/04/25 13:01:34;;;;;;;;;5.80;5.80;;;;;;;;5022477;28;8821;-83
2022/04/25 13:04:11;;;;;;;;;6.80;6.00;;;;;;;;5011110;28;8948;-84
2022/04/25 13:06:38;;;;;;;;;8.80;6.80;;;;;;;;5007675;28;9019;-83
2022/04/25 13:09:06;;;;;;;;;6.40;6.40;;;;;;;;5025019;28;8874;-84
2022/04/25 13:11:34;;;;;;;;;6.20;6.20;;;;;;;;5025686;28;8878;-84
2022/04/25 13:14:01;;;;;;;;;5.60;5.60;;;;;;;;5024607;28;8880;-83
2022/04/25 13:16:31;;;;;;;;;4.00;4.00;;;;;;;;5029604;28;8889;-85
2022/04/25 13:18:59;;;;;;;;;5.40;4.40;;;;;;;;5035130;28;8876;-84
2022/04/25 13:21:26;;;;;;;;;4.00;4.00;;;;;;;;5025553;28;8916;-85
2022/04/25 13:23:54;;;;;;;;;5.00;5.00;;;;;;;;5025457;28;9623;-85
2022/04/25 13:26:22;;;;;;;;;6.00;6.00;;;;;;;;5021015;28;8892;-85
2022/04/25 13:28:50;;;;;;;;;2.60;2.60;;;;;;;;5008386;28;8888;-86
2022/04/25 13:31:18;;;;;;;;;4.80;4.80;;;;;;;;5021531;28;8831;-83
2022/04/25 13:33:47;;;;;;;;;3.60;3.60;;;;;;;;5005413;28;8988;-84
2022/04/25 13:36:16;;;;;;;;;4.00;4.00;;;;;;;;5023097;28;8870;-85
2022/04/25 13:38:43;;;;;;;;;3.40;3.40;;;;;;;;5025699;28;9686;-86
2022/04/25 13:41:10;;;;;;;;;4.00;4.00;;;;;;;;5025214;28;8928;-84
2022/04/25 13:43:37;;;;;;;;;3.80;3.80;;;;;;;;5017586;28;8853;-83
2022/04/25 13:46:05;;;;;;;;;4.00;4.00;;;;;;;;5028462;28;8878;-85
2022/04/25 13:48:32;;;;;;;;;5.20;3.40;;;;;;;;5006399;28;8866;-80
2022/04/25 13:51:01;;;;;;;;;4.40;4.40;;;;;;;;5012542;28;8893;-82
2022/04/25 13:53:29;;;;;;;;;4.20;4.20;;;;;;;;5029376;28;8864;-84
2022/04/25 13:55:56;;;;;;;;;3.00;3.00;;;;;;;;5031089;28;8880;-84
2022/04/25 13:58:24;;;;;;;;;3.00;3.00;;;;;;;;5004875;28;9010;-84
2022/04/25 14:00:52;;;;;;;;;3.40;2.40;;;;;;;;5008065;28;9681;-83
2022/04/25 14:03:21;;;;;;;;;2.20;2.20;;;;;;;;5007208;28;8834;-83
2022/04/25 14:05:50;;;;;;;;;3.60;3.60;;;;;;;;5014161;28;8881;-82
2022/04/25 14:08:20;;;;;;;;;5.00;5.00;;;;;;;;5020836;28;8866;-82
2022/04/25 14:10:48;;;;;;;;;5.00;5.00;;;;;;;;5010707;28;8858;-84
2022/04/25 14:13:16;;;;;;;;;7.00;5.00;;;;;;;;5020191;28;8874;-84
2022/04/25 14:15:44;;;;;;;;;6.00;6.00;;;;;;;;5032131;28;8874;-84
2022/04/25 14:18:12;;;;;;;;;7.00;7.00;;;;;;;;5022849;28;8870;-83
2022/04/25 14:20:41;;;;;;;;;5.20;5.20;;;;;;;;5025036;28;8986;-86
2022/04/25 14:23:09;;;;;;;;;5.40;4.00;;;;;;;;5021480;28;8890;-85
2022/04/25 14:25:39;;;;;;;;;6.20;6.20;;;;;;;;5016332;28;8924;-83
2022/04/25 14:28:08;;;;;;;;;5.00;5.00;;;;;;;;5019336;28;8900;-84
2022/04/25 14:30:35;;;;;;;;;5.75;5.75;;;;;;;;5015224;28;8820;-83
2022/04/25 14:33:03;;;;;;;;;5.00;5.00;;;;;;;;5023137;28;8931;-83
2022/04/25 14:35:31;;;;;;;;;5.50;5.50;;;;;;;;5022641;28;8874;-84
2022/04/25 14:37:58;;;;;;;;;4.00;4.00;;;;;;;;5013779;28;9744;-82
2022/04/25 14:40:25;;;;;;;;;4.50;4.50;;;;;;;;5015915;28;8992;-82
2022/04/25 14:42:54;;;;;;;;;2.25;2.25;;;;;;;;5029668;28;8874;-83
2022/04/25 14:45:23;;;;;;;;;6.25;4.75;;;;;;;;5022485;28;8892;-82
2022/04/25 14:47:51;;;;;;;;;6.25;6.25;;;;;;;;4978390;28;8884;-85
2022/04/25 14:55:49;;;;;;;;;8.75;6.75;;;;;;;;5023432;28;8874;-84
2022/04/25 14:58:18;;;;;;;;;7.00;7.00;;;;;;;;5022519;28;8912;-83
2022/04/25 15:00:46;;;;;;;;;6.50;6.50;;;;;;;;5022574;28;8814;-83
2022/04/25 15:03:14;;;;;;;;;6.25;6.25;;;;;;;;5016035;28;8896;-82
2022/04/25 15:05:42;;;;;;;;;7.00;7.00;;;;;;;;5027100;28;8880;-84
2022/04/25 15:08:10;;;;;;;;;6.00;6.00;;;;;;;;5010265;28;8870;-83
2022/04/25 15:10:38;;;;;;;;;6.50;5.75;;;;;;;;5003613;28;8858;-83
2022/04/25 15:13:06;;;;;;;;;3.67;3.67;;;;;;;;5016176;28;9623;-85
2022/04/25 15:15:36;;;;;;;;;6.00;6.00;;;;;;;;5022389;28;9678;-82
2022/04/25 15:18:04;;;;;;;;;5.25;5.25;;;;;;;;5017371;28;8870;-89
2022/04/25 15:20:32;;;;;;;;;5.25;4.00;;;;;;;;5021720;28;8886;-89
2022/04/25 15:23:02;;;;;;;;;5.50;5.50;;;;;;;;5017217;28;8908;-89
2022/04/25 15:25:29;;;;;;;;;7.00;5.00;;;;;;;;5020828;28;8850;-87
2022/04/25 15:28:00;;;;;;;;;6.00;6.00;;;;;;;;5021502;28;9751;-84
2022/04/25 15:30:27;;;;;;;;;9.75;7.00;;;;;;;;5004836;28;9580;-83